sensor_id;sensor_type;location;lat;lon;timestamp;P1;durP1;ratioP1;P2;durP2;ratioP2
5955;SDS011;3004;48.080;11.600;2023-04-26T04:33:04;73.30;;;6.73;;
5955;SDS011;3004;48.080;11.600;2023-04-26T04:35:34;73.27;;;6.87;;
5955;SDS011;3004;48.080;11.600;2023-04-26T04:38:01;73.57;;;7.20;;
5955;SDS011;3004;48.080;11.600;2023-04-26T04:40:29;73.00;;;6.80;;
5955;SDS011;3004;48.080;11.600;2023-04-26T04:42:57;73.20;;;6.83;;
5955;SDS011;3004;48.080;11.600;2023-04-26T04:45:25;73.17;;;6.80;;
5955;SDS011;3004;48.080;11.600;2023-04-26T04:47:52;73.00;;;6.80;;
5955;SDS011;3004;48.080;11.600;2023-04-26T04:50:21;73.47;;;7.00;;
5955;SDS011;3004;48.080;11.600;2023-04-26T04:52:49;72.90;;;6.80;;
5955;SDS011;3004;48.080;11.600;2023-04-26T04:55:16;73.00;;;6.80;;
5955;SDS011;3004;48.080;11.600;2023-04-26T04:57:43;74.60;;;7.30;;
5955;SDS011;3004;48.080;11.600;2023-04-26T05:00:11;74.10;;;7.50;;
5955;SDS011;3004;48.080;11.600;2023-04-26T05:02:39;74.23;;;7.60;;
5955;SDS011;3004;48.080;11.600;2023-04-26T05:05:08;73.37;;;6.87;;
5955;SDS011;3004;48.080;11.600;2023-04-26T05:07:37;73.37;;;6.90;;
5955;SDS011;3004;48.080;11.600;2023-04-26T05:10:05;73.53;;;7.60;;
5955;SDS011;3004;48.080;11.600;2023-04-26T05:12:32;73.17;;;6.93;;
5955;SDS011;3004;48.080;11.600;2023-04-26T05:15:00;73.20;;;6.97;;
5955;SDS011;3004;48.080;11.600;2023-04-26T05:17:28;73.00;;;6.93;;
5955;SDS011;3004;48.080;11.600;2023-04-26T05:19:58;73.27;;;6.93;;
5955;SDS011;3004;48.080;11.600;2023-04-26T05:22:33;73.27;;;7.03;;
5955;SDS011;3004;48.080;11.600;2023-04-26T05:25:03;73.10;;;6.93;;
5955;SDS011;3004;48.080;11.600;2023-04-26T05:27:32;74.93;;;7.30;;
5955;SDS011;3004;48.080;11.600;2023-04-26T05:30:00;73.30;;;7.03;;
5955;SDS011;3004;48.080;11.600;2023-04-26T05:32:28;73.53;;;7.20;;
5955;SDS011;3004;48.080;11.600;2023-04-26T05:34:56;73.10;;;7.00;;
5955;SDS011;3004;48.080;11.600;2023-04-26T05:37:24;73.27;;;7.10;;
5955;SDS011;3004;48.080;11.600;2023-04-26T05:39:53;73.00;;;7.07;;
5955;SDS011;3004;48.080;11.600;2023-04-26T05:42:23;73.43;;;7.10;;
5955;SDS011;3004;48.080;11.600;2023-04-26T05:44:55;73.10;;;7.13;;
5955;SDS011;3004;48.080;11.600;2023-04-26T05:47:22;73.30;;;7.13;;
5955;SDS011;3004;48.080;11.600;2023-04-26T05:49:52;73.10;;;7.17;;
5955;SDS011;3004;48.080;11.600;2023-04-26T05:52:19;72.97;;;7.10;;
5955;SDS011;3004;48.080;11.600;2023-04-26T05:54:49;73.30;;;7.03;;
5955;SDS011;3004;48.080;11.600;2023-04-26T05:57:17;74.10;;;7.10;;
5955;SDS011;3004;48.080;11.600;2023-04-26T05:59:58;73.00;;;6.87;;
5955;SDS011;3004;48.080;11.600;2023-04-26T06:02:26;73.30;;;6.83;;
5955;SDS011;3004;48.080;11.600;2023-04-26T06:04:56;73.27;;;6.90;;
5955;SDS011;3004;48.080;11.600;2023-04-26T06:07:23;73.10;;;6.87;;
5955;SDS011;3004;48.080;11.600;2023-04-26T06:09:51;72.90;;;6.83;;
5955;SDS011;3004;48.080;11.600;2023-04-26T06:12:18;73.17;;;6.87;;
5955;SDS011;3004;48.080;11.600;2023-04-26T06:14:45;73.07;;;6.70;;
5955;SDS011;3004;48.080;11.600;2023-04-26T06:17:14;72.87;;;7.20;;
5955;SDS011;3004;48.080;11.600;2023-04-26T06:19:41;73.20;;;7.07;;
5955;SDS011;3004;48.080;11.600;2023-04-26T06:22:08;72.90;;;6.60;;
5955;SDS011;3004;48.080;11.600;2023-04-26T06:24:36;72.90;;;6.63;;
5955;SDS011;3004;48.080;11.600;2023-04-26T06:27:03;72.90;;;6.67;;
5955;SDS011;3004;48.080;11.600;2023-04-26T06:29:31;74.00;;;7.37;;
5955;SDS011;3004;48.080;11.600;2023-04-26T06:31:58;72.97;;;6.70;;
5955;SDS011;3004;48.080;11.600;2023-04-26T06:34:27;72.80;;;6.70;;
5955;SDS011;3004;48.080;11.600;2023-04-26T06:36:57;73.30;;;6.77;;
5955;SDS011;3004;48.080;11.600;2023-04-26T06:39:27;72.90;;;6.83;;
5955;SDS011;3004;48.080;11.600;2023-04-26T06:41:54;73.20;;;6.83;;
5955;SDS011;3004;48.080;11.600;2023-04-26T06:44:24;73.37;;;6.90;;
5955;SDS011;3004;48.080;11.600;2023-04-26T06:46:52;72.80;;;6.97;;
5955;SDS011;3004;48.080;11.600;2023-04-26T06:49:20;73.10;;;6.97;;
5955;SDS011;3004;48.080;11.600;2023-04-26T06:51:49;73.07;;;6.97;;
5955;SDS011;3004;48.080;11.600;2023-04-26T06:54:17;72.90;;;6.90;;
5955;SDS011;3004;48.080;11.600;2023-04-26T06:56:44;73.17;;;7.20;;
5955;SDS011;3004;48.080;11.600;2023-04-26T06:59:12;73.10;;;7.13;;
5955;SDS011;3004;48.080;11.600;2023-04-26T07:01:39;72.50;;;7.23;;
5955;SDS011;3004;48.080;11.600;2023-04-26T07:04:06;72.90;;;7.20;;
5955;SDS011;3004;48.080;11.600;2023-04-26T07:06:34;73.27;;;7.33;;
5955;SDS011;3004;48.080;11.600;2023-04-26T07:09:03;73.17;;;6.87;;
5955;SDS011;3004;48.080;11.600;2023-04-26T07:11:32;73.20;;;6.90;;
5955;SDS011;3004;48.080;11.600;2023-04-26T07:14:00;73.20;;;6.97;;
5955;SDS011;3004;48.080;11.600;2023-04-26T07:16:27;73.30;;;7.03;;
5955;SDS011;3004;48.080;11.600;2023-04-26T07:18:57;72.90;;;7.07;;
5955;SDS011;3004;48.080;11.600;2023-04-26T07:21:25;74.30;;;7.83;;
5955;SDS011;3004;48.080;11.600;2023-04-26T07:23:54;73.23;;;7.13;;
5955;SDS011;3004;48.080;11.600;2023-04-26T07:29:21;73.07;;;7.27;;
5955;SDS011;3004;48.080;11.600;2023-04-26T07:31:52;73.07;;;7.27;;
5955;SDS011;3004;48.080;11.600;2023-04-26T07:34:21;73.07;;;7.23;;
5955;SDS011;3004;48.080;11.600;2023-04-26T07:36:48;73.30;;;7.27;;
5955;SDS011;3004;48.080;11.600;2023-04-26T07:39:17;72.90;;;7.33;;
5955;SDS011;3004;48.080;11.600;2023-04-26T07:41:44;73.30;;;7.27;;
5955;SDS011;3004;48.080;11.600;2023-04-26T07:44:12;73.70;;;7.20;;
5955;SDS011;3004;48.080;11.600;2023-04-26T07:46:41;73.40;;;6.90;;
5955;SDS011;3004;48.080;11.600;2023-04-26T07:49:10;73.27;;;6.73;;
5955;SDS011;3004;48.080;11.600;2023-04-26T07:51:42;73.27;;;6.63;;
5955;SDS011;3004;48.080;11.600;2023-04-26T07:54:10;72.97;;;6.57;;
5955;SDS011;3004;48.080;11.600;2023-04-26T07:56:37;73.37;;;6.67;;
5955;SDS011;3004;48.080;11.600;2023-04-26T07:59:07;73.17;;;6.73;;
5955;SDS011;3004;48.080;11.600;2023-04-26T08:34:29;69.80;;;4.47;;
5955;SDS011;3004;48.080;11.600;2023-04-26T08:36:57;70.20;;;4.60;;
5955;SDS011;3004;48.080;11.600;2023-04-26T08:39:27;68.47;;;3.80;;
5955;SDS011;3004;48.080;11.600;2023-04-26T08:42:03;68.73;;;3.80;;
5955;SDS011;3004;48.080;11.600;2023-04-26T08:47:33;69.30;;;4.00;;
5955;SDS011;3004;48.080;11.600;2023-04-26T08:50:07;68.50;;;3.80;;
5955;SDS011;3004;48.080;11.600;2023-04-26T08:52:38;68.67;;;3.80;;
5955;SDS011;3004;48.080;11.600;2023-04-26T08:55:06;68.07;;;3.40;;
5955;SDS011;3004;48.080;11.600;2023-04-26T08:57:35;68.27;;;3.70;;
5955;SDS011;3004;48.080;11.600;2023-04-26T09:00:05;67.63;;;3.40;;
5955;SDS011;3004;48.080;11.600;2023-04-26T09:02:38;68.03;;;3.37;;
5955;SDS011;3004;48.080;11.600;2023-04-26T09:05:11;67.40;;;3.10;;
5955;SDS011;3004;48.080;11.600;2023-04-26T09:07:47;67.20;;;3.00;;
5955;SDS011;3004;48.080;11.600;2023-04-26T09:10:19;66.80;;;2.90;;
5955;SDS011;3004;48.080;11.600;2023-04-26T09:12:50;67.10;;;3.20;;
5955;SDS011;3004;48.080;11.600;2023-04-26T09:15:21;67.47;;;3.10;;
5955;SDS011;3004;48.080;11.600;2023-04-26T09:18:18;67.10;;;3.00;;
5955;SDS011;3004;48.080;11.600;2023-04-26T09:21:00;67.27;;;2.93;;
5955;SDS011;3004;48.080;11.600;2023-04-26T09:23:30;67.03;;;3.00;;
5955;SDS011;3004;48.080;11.600;2023-04-26T09:32:33;67.70;;;3.13;;
5955;SDS011;3004;48.080;11.600;2023-04-26T09:38:40;67.30;;;3.17;;
5955;SDS011;3004;48.080;11.600;2023-04-26T09:41:07;67.97;;;3.57;;
5955;SDS011;3004;48.080;11.600;2023-04-26T09:43:39;67.00;;;2.97;;
5955;SDS011;3004;48.080;11.600;2023-04-26T09:46:10;66.90;;;2.90;;
5955;SDS011;3004;48.080;11.600;2023-04-26T09:48:38;67.00;;;3.10;;
5955;SDS011;3004;48.080;11.600;2023-04-26T09:51:08;68.73;;;4.50;;
5955;SDS011;3004;48.080;11.600;2023-04-26T09:53:41;67.67;;;3.13;;
5955;SDS011;3004;48.080;11.600;2023-04-26T09:56:18;67.87;;;3.30;;
5955;SDS011;3004;48.080;11.600;2023-04-26T09:58:54;67.30;;;3.17;;
5955;SDS011;3004;48.080;11.600;2023-04-26T10:01:24;67.00;;;3.00;;
5955;SDS011;3004;48.080;11.600;2023-04-26T10:03:53;66.37;;;2.90;;
5955;SDS011;3004;48.080;11.600;2023-04-26T10:06:24;66.67;;;3.00;;
5955;SDS011;3004;48.080;11.600;2023-04-26T10:08:53;67.33;;;2.90;;
5955;SDS011;3004;48.080;11.600;2023-04-26T10:11:28;67.00;;;3.10;;
5955;SDS011;3004;48.080;11.600;2023-04-26T10:13:58;66.50;;;2.80;;
5955;SDS011;3004;48.080;11.600;2023-04-26T10:16:31;67.23;;;2.87;;
5955;SDS011;3004;48.080;11.600;2023-04-26T10:18:59;67.77;;;4.27;;
5955;SDS011;3004;48.080;11.600;2023-04-26T10:21:40;67.27;;;3.10;;
5955;SDS011;3004;48.080;11.600;2023-04-26T10:24:11;66.80;;;3.00;;
5955;SDS011;3004;48.080;11.600;2023-04-26T10:26:45;67.17;;;3.10;;
5955;SDS011;3004;48.080;11.600;2023-04-26T10:29:13;67.50;;;3.10;;
5955;SDS011;3004;48.080;11.600;2023-04-26T10:34:29;66.87;;;3.00;;
5955;SDS011;3004;48.080;11.600;2023-04-26T10:37:07;66.80;;;2.90;;
5955;SDS011;3004;48.080;11.600;2023-04-26T10:39:36;66.17;;;2.40;;
5955;SDS011;3004;48.080;11.600;2023-04-26T10:42:17;66.20;;;2.70;;
5955;SDS011;3004;48.080;11.600;2023-04-26T10:44:47;66.37;;;2.60;;
5955;SDS011;3004;48.080;11.600;2023-04-26T10:50:11;66.57;;;2.30;;
5955;SDS011;3004;48.080;11.600;2023-04-26T10:55:57;66.40;;;2.40;;
5955;SDS011;3004;48.080;11.600;2023-04-26T10:58:25;66.53;;;1.93;;
5955;SDS011;3004;48.080;11.600;2023-04-26T11:01:02;66.57;;;2.53;;
5955;SDS011;3004;48.080;11.600;2023-04-26T11:03:30;66.83;;;2.17;;
5955;SDS011;3004;48.080;11.600;2023-04-26T11:05:57;66.50;;;1.60;;
5955;SDS011;3004;48.080;11.600;2023-04-26T11:08:29;66.70;;;1.40;;
5955;SDS011;3004;48.080;11.600;2023-04-26T11:11:09;66.77;;;1.80;;
5955;SDS011;3004;48.080;11.600;2023-04-26T11:16:41;67.23;;;1.53;;
5955;SDS011;3004;48.080;11.600;2023-04-26T11:22:13;66.87;;;1.10;;
5955;SDS011;3004;48.080;11.600;2023-04-26T11:24:42;67.13;;;1.70;;
5955;SDS011;3004;48.080;11.600;2023-04-26T11:27:10;66.57;;;1.50;;
5955;SDS011;3004;48.080;11.600;2023-04-26T11:29:38;66.77;;;1.30;;
5955;SDS011;3004;48.080;11.600;2023-04-26T11:32:05;66.50;;;1.37;;
5955;SDS011;3004;48.080;11.600;2023-04-26T11:34:33;67.50;;;1.73;;
5955;SDS011;3004;48.080;11.600;2023-04-26T11:37:02;66.77;;;1.30;;
5955;SDS011;3004;48.080;11.600;2023-04-26T11:39:29;67.07;;;1.30;;
5955;SDS011;3004;48.080;11.600;2023-04-26T11:42:03;66.77;;;1.50;;
5955;SDS011;3004;48.080;11.600;2023-04-26T11:44:33;66.97;;;1.50;;
5955;SDS011;3004;48.080;11.600;2023-04-26T11:47:00;66.97;;;1.40;;
5955;SDS011;3004;48.080;11.600;2023-04-26T11:49:28;66.77;;;1.60;;
5955;SDS011;3004;48.080;11.600;2023-04-26T11:51:58;66.80;;;1.20;;
5955;SDS011;3004;48.080;11.600;2023-04-26T11:54:26;67.07;;;1.40;;
5955;SDS011;3004;48.080;11.600;2023-04-26T11:56:54;67.33;;;1.30;;
5955;SDS011;3004;48.080;11.600;2023-04-26T11:59:23;67.37;;;1.50;;
5955;SDS011;3004;48.080;11.600;2023-04-26T12:01:52;66.70;;;1.20;;
5955;SDS011;3004;48.080;11.600;2023-04-26T12:04:25;71.07;;;2.30;;
5955;SDS011;3004;48.080;11.600;2023-04-26T12:06:53;67.57;;;1.70;;
5955;SDS011;3004;48.080;11.600;2023-04-26T12:09:22;67.80;;;1.60;;
5955;SDS011;3004;48.080;11.600;2023-04-26T12:12:03;67.47;;;1.50;;
5955;SDS011;3004;48.080;11.600;2023-04-26T12:14:49;68.83;;;2.63;;
5955;SDS011;3004;48.080;11.600;2023-04-26T12:17:37;66.90;;;1.60;;
5955;SDS011;3004;48.080;11.600;2023-04-26T12:20:10;67.27;;;1.23;;
5955;SDS011;3004;48.080;11.600;2023-04-26T12:22:40;66.70;;;1.30;;
5955;SDS011;3004;48.080;11.600;2023-04-26T12:25:07;66.53;;;1.40;;
5955;SDS011;3004;48.080;11.600;2023-04-26T12:27:35;67.00;;;1.27;;
5955;SDS011;3004;48.080;11.600;2023-04-26T12:30:04;67.07;;;1.40;;
5955;SDS011;3004;48.080;11.600;2023-04-26T12:32:33;66.50;;;1.20;;
5955;SDS011;3004;48.080;11.600;2023-04-26T12:35:02;66.77;;;1.47;;
5955;SDS011;3004;48.080;11.600;2023-04-26T12:37:29;66.80;;;1.20;;
5955;SDS011;3004;48.080;11.600;2023-04-26T12:39:58;66.97;;;1.30;;
5955;SDS011;3004;48.080;11.600;2023-04-26T12:42:25;66.90;;;1.20;;
5955;SDS011;3004;48.080;11.600;2023-04-26T12:44:53;66.80;;;1.23;;
5955;SDS011;3004;48.080;11.600;2023-04-26T12:47:20;66.87;;;1.20;;
5955;SDS011;3004;48.080;11.600;2023-04-26T12:49:47;67.37;;;1.20;;
5955;SDS011;3004;48.080;11.600;2023-04-26T12:52:16;70.00;;;1.60;;
5955;SDS011;3004;48.080;11.600;2023-04-26T12:54:44;67.00;;;1.20;;
5955;SDS011;3004;48.080;11.600;2023-04-26T12:57:13;67.00;;;1.20;;
5955;SDS011;3004;48.080;11.600;2023-04-26T12:59:40;70.17;;;2.80;;
5955;SDS011;3004;48.080;11.600;2023-04-26T13:02:08;69.33;;;2.13;;
5955;SDS011;3004;48.080;11.600;2023-04-26T13:04:35;67.40;;;1.30;;
5955;SDS011;3004;48.080;11.600;2023-04-26T13:07:02;67.37;;;1.20;;
5955;SDS011;3004;48.080;11.600;2023-04-26T13:09:34;68.13;;;1.60;;
5955;SDS011;3004;48.080;11.600;2023-04-26T13:12:02;67.33;;;1.30;;
5955;SDS011;3004;48.080;11.600;2023-04-26T13:14:29;66.90;;;1.20;;
5955;SDS011;3004;48.080;11.600;2023-04-26T13:16:56;69.17;;;1.70;;
5955;SDS011;3004;48.080;11.600;2023-04-26T13:22:28;72.60;;;2.87;;
5955;SDS011;3004;48.080;11.600;2023-04-26T13:24:58;67.60;;;1.80;;
5955;SDS011;3004;48.080;11.600;2023-04-26T13:27:27;67.57;;;2.03;;
5955;SDS011;3004;48.080;11.600;2023-04-26T13:29:55;67.77;;;1.70;;
5955;SDS011;3004;48.080;11.600;2023-04-26T13:32:27;67.77;;;1.30;;
5955;SDS011;3004;48.080;11.600;2023-04-26T13:34:54;67.00;;;1.20;;
5955;SDS011;3004;48.080;11.600;2023-04-26T13:37:22;67.37;;;1.40;;
5955;SDS011;3004;48.080;11.600;2023-04-26T13:42:54;66.97;;;1.20;;
5955;SDS011;3004;48.080;11.600;2023-04-26T13:45:21;68.27;;;2.00;;
5955;SDS011;3004;48.080;11.600;2023-04-26T13:47:48;67.40;;;1.10;;
5955;SDS011;3004;48.080;11.600;2023-04-26T13:50:17;67.67;;;1.60;;
5955;SDS011;3004;48.080;11.600;2023-04-26T13:52:44;67.37;;;1.27;;
5955;SDS011;3004;48.080;11.600;2023-04-26T13:55:14;66.70;;;1.40;;
5955;SDS011;3004;48.080;11.600;2023-04-26T13:57:43;67.30;;;1.50;;
5955;SDS011;3004;48.080;11.600;2023-04-26T14:00:12;73.33;;;1.60;;
5955;SDS011;3004;48.080;11.600;2023-04-26T14:02:40;67.30;;;1.30;;
5955;SDS011;3004;48.080;11.600;2023-04-26T14:05:07;67.83;;;1.40;;
5955;SDS011;3004;48.080;11.600;2023-04-26T14:07:35;67.10;;;1.20;;
5955;SDS011;3004;48.080;11.600;2023-04-26T14:10:04;67.30;;;1.30;;
5955;SDS011;3004;48.080;11.600;2023-04-26T14:12:33;68.33;;;1.93;;
5955;SDS011;3004;48.080;11.600;2023-04-26T14:15:00;67.63;;;1.30;;
5955;SDS011;3004;48.080;11.600;2023-04-26T14:17:29;67.77;;;1.40;;
5955;SDS011;3004;48.080;11.600;2023-04-26T14:20:11;67.57;;;1.20;;
5955;SDS011;3004;48.080;11.600;2023-04-26T14:22:38;67.53;;;1.50;;
5955;SDS011;3004;48.080;11.600;2023-04-26T14:25:05;67.27;;;1.30;;
5955;SDS011;3004;48.080;11.600;2023-04-26T14:27:33;67.20;;;1.40;;
5955;SDS011;3004;48.080;11.600;2023-04-26T14:30:01;68.00;;;1.30;;
5955;SDS011;3004;48.080;11.600;2023-04-26T14:35:33;67.37;;;1.40;;
5955;SDS011;3004;48.080;11.600;2023-04-26T14:38:00;67.10;;;1.30;;
5955;SDS011;3004;48.080;11.600;2023-04-26T14:40:27;68.70;;;2.27;;
5955;SDS011;3004;48.080;11.600;2023-04-26T14:42:55;67.30;;;1.20;;
5955;SDS011;3004;48.080;11.600;2023-04-26T14:45:22;70.47;;;2.47;;
5955;SDS011;3004;48.080;11.600;2023-04-26T14:47:50;67.97;;;1.60;;
5955;SDS011;3004;48.080;11.600;2023-04-26T14:50:19;67.60;;;1.30;;
5955;SDS011;3004;48.080;11.600;2023-04-26T14:52:48;67.10;;;1.33;;
5955;SDS011;3004;48.080;11.600;2023-04-26T14:55:16;67.23;;;1.40;;
5955;SDS011;3004;48.080;11.600;2023-04-26T14:57:44;67.40;;;1.67;;
5955;SDS011;3004;48.080;11.600;2023-04-26T15:00:11;67.67;;;2.00;;
5955;SDS011;3004;48.080;11.600;2023-04-26T15:02:41;67.30;;;1.33;;
5955;SDS011;3004;48.080;11.600;2023-04-26T15:05:08;67.30;;;1.20;;
5955;SDS011;3004;48.080;11.600;2023-04-26T15:07:36;67.40;;;1.20;;
5955;SDS011;3004;48.080;11.600;2023-04-26T15:10:07;67.20;;;1.23;;
5955;SDS011;3004;48.080;11.600;2023-04-26T15:12:35;67.00;;;1.20;;
5955;SDS011;3004;48.080;11.600;2023-04-26T15:15:03;68.20;;;2.30;;
5955;SDS011;3004;48.080;11.600;2023-04-26T15:17:31;66.80;;;1.20;;
5955;SDS011;3004;48.080;11.600;2023-04-26T15:19:59;68.50;;;1.73;;
5955;SDS011;3004;48.080;11.600;2023-04-26T15:22:26;70.67;;;1.60;;
5955;SDS011;3004;48.080;11.600;2023-04-26T15:24:54;67.10;;;1.20;;
5955;SDS011;3004;48.080;11.600;2023-04-26T15:27:23;67.37;;;1.43;;
5955;SDS011;3004;48.080;11.600;2023-04-26T15:29:51;67.17;;;1.27;;
5955;SDS011;3004;48.080;11.600;2023-04-26T15:32:20;68.10;;;1.60;;
5955;SDS011;3004;48.080;11.600;2023-04-26T15:34:47;67.10;;;1.40;;
5955;SDS011;3004;48.080;11.600;2023-04-26T15:37:15;67.47;;;1.60;;
5955;SDS011;3004;48.080;11.600;2023-04-26T15:58:06;67.47;;;1.30;;
5955;SDS011;3004;48.080;11.600;2023-04-26T16:00:33;66.80;;;1.23;;
5955;SDS011;3004;48.080;11.600;2023-04-26T16:03:01;74.37;;;2.90;;
5955;SDS011;3004;48.080;11.600;2023-04-26T16:05:29;67.27;;;1.10;;
5955;SDS011;3004;48.080;11.600;2023-04-26T16:07:57;68.30;;;2.07;;
5955;SDS011;3004;48.080;11.600;2023-04-26T16:10:25;66.80;;;1.20;;
5955;SDS011;3004;48.080;11.600;2023-04-26T16:12:52;68.60;;;2.03;;
5955;SDS011;3004;48.080;11.600;2023-04-26T16:15:23;67.30;;;1.40;;
5955;SDS011;3004;48.080;11.600;2023-04-26T16:17:50;67.53;;;1.67;;
5955;SDS011;3004;48.080;11.600;2023-04-26T16:20:17;67.37;;;1.27;;
5955;SDS011;3004;48.080;11.600;2023-04-26T16:22:45;79.20;;;2.50;;
5955;SDS011;3004;48.080;11.600;2023-04-26T16:28:27;67.47;;;1.20;;
5955;SDS011;3004;48.080;11.600;2023-04-26T16:30:57;67.20;;;1.30;;
5955;SDS011;3004;48.080;11.600;2023-04-26T16:33:25;66.80;;;1.30;;
5955;SDS011;3004;48.080;11.600;2023-04-26T16:35:52;66.97;;;1.33;;
5955;SDS011;3004;48.080;11.600;2023-04-26T16:38:20;67.20;;;1.27;;
5955;SDS011;3004;48.080;11.600;2023-04-26T16:40:52;68.07;;;1.60;;
5955;SDS011;3004;48.080;11.600;2023-04-26T16:43:25;67.30;;;1.20;;
5955;SDS011;3004;48.080;11.600;2023-04-26T16:46:00;67.27;;;1.30;;
5955;SDS011;3004;48.080;11.600;2023-04-26T16:48:32;67.37;;;1.40;;
5955;SDS011;3004;48.080;11.600;2023-04-26T16:51:00;67.13;;;1.40;;
5955;SDS011;3004;48.080;11.600;2023-04-26T16:53:31;66.70;;;1.30;;
5955;SDS011;3004;48.080;11.600;2023-04-26T16:55:58;67.00;;;1.30;;
5955;SDS011;3004;48.080;11.600;2023-04-26T16:58:26;67.27;;;1.50;;
5955;SDS011;3004;48.080;11.600;2023-04-26T17:00:53;67.17;;;1.63;;
5955;SDS011;3004;48.080;11.600;2023-04-26T17:03:22;71.50;;;4.20;;
5955;SDS011;3004;48.080;11.600;2023-04-26T17:05:50;74.40;;;4.47;;
5955;SDS011;3004;48.080;11.600;2023-04-26T17:08:18;69.50;;;3.57;;
5955;SDS011;3004;48.080;11.600;2023-04-26T17:10:54;67.47;;;2.13;;
5955;SDS011;3004;48.080;11.600;2023-04-26T17:13:21;66.77;;;1.67;;
5955;SDS011;3004;48.080;11.600;2023-04-26T17:46:44;67.00;;;1.40;;
5955;SDS011;3004;48.080;11.600;2023-04-26T17:49:19;69.13;;;2.77;;
5955;SDS011;3004;48.080;11.600;2023-04-26T17:51:57;66.70;;;1.20;;
5955;SDS011;3004;48.080;11.600;2023-04-26T17:54:42;66.87;;;1.30;;
5955;SDS011;3004;48.080;11.600;2023-04-26T17:57:24;66.57;;;1.67;;
5955;SDS011;3004;48.080;11.600;2023-04-26T17:59:51;67.00;;;1.20;;
5955;SDS011;3004;48.080;11.600;2023-04-26T18:02:20;66.87;;;1.30;;
5955;SDS011;3004;48.080;11.600;2023-04-26T18:23:16;66.60;;;1.20;;
5955;SDS011;3004;48.080;11.600;2023-04-26T18:26:01;66.77;;;1.20;;
5955;SDS011;3004;48.080;11.600;2023-04-26T18:31:50;66.77;;;1.30;;
5955;SDS011;3004;48.080;11.600;2023-04-26T18:38:07;66.47;;;1.20;;
5955;SDS011;3004;48.080;11.600;2023-04-26T18:41:08;66.70;;;1.20;;
5955;SDS011;3004;48.080;11.600;2023-04-26T18:47:04;66.70;;;1.10;;
5955;SDS011;3004;48.080;11.600;2023-04-26T18:49:43;67.07;;;1.67;;
5955;SDS011;3004;48.080;11.600;2023-04-26T18:58:16;66.50;;;1.20;;
5955;SDS011;3004;48.080;11.600;2023-04-26T19:00:47;66.77;;;1.20;;
5955;SDS011;3004;48.080;11.600;2023-04-26T19:03:17;66.63;;;1.20;;
5955;SDS011;3004;48.080;11.600;2023-04-26T19:05:53;66.57;;;1.30;;
5955;SDS011;3004;48.080;11.600;2023-04-26T19:08:20;66.30;;;1.20;;
5955;SDS011;3004;48.080;11.600;2023-04-26T19:10:51;66.87;;;1.30;;
5955;SDS011;3004;48.080;11.600;2023-04-26T19:13:20;66.30;;;1.20;;
5955;SDS011;3004;48.080;11.600;2023-04-26T19:15:51;66.30;;;1.20;;
5955;SDS011;3004;48.080;11.600;2023-04-26T19:18:21;66.87;;;1.20;;
5955;SDS011;3004;48.080;11.600;2023-04-26T19:21:11;67.90;;;2.63;;
5955;SDS011;3004;48.080;11.600;2023-04-26T19:24:46;66.70;;;1.20;;
5955;SDS011;3004;48.080;11.600;2023-04-26T19:26:45;66.60;;;1.20;;
5955;SDS011;3004;48.080;11.600;2023-04-26T19:29:14;66.97;;;1.10;;
5955;SDS011;3004;48.080;11.600;2023-04-26T19:31:42;66.47;;;1.20;;
5955;SDS011;3004;48.080;11.600;2023-04-26T19:34:09;66.47;;;1.20;;
5955;SDS011;3004;48.080;11.600;2023-04-26T19:36:36;66.57;;;1.40;;
5955;SDS011;3004;48.080;11.600;2023-04-26T19:39:06;77.23;;;2.80;;
5955;SDS011;3004;48.080;11.600;2023-04-26T19:41:34;66.20;;;1.30;;
5955;SDS011;3004;48.080;11.600;2023-04-26T19:44:05;66.50;;;1.40;;
5955;SDS011;3004;48.080;11.600;2023-04-26T19:46:34;66.67;;;1.50;;
5955;SDS011;3004;48.080;11.600;2023-04-26T19:49:01;66.57;;;1.50;;
5955;SDS011;3004;48.080;11.600;2023-04-26T19:51:29;66.47;;;1.40;;
5955;SDS011;3004;48.080;11.600;2023-04-26T19:53:56;66.57;;;1.50;;
5955;SDS011;3004;48.080;11.600;2023-04-26T19:56:23;66.47;;;1.50;;
5955;SDS011;3004;48.080;11.600;2023-04-26T19:58:50;66.37;;;1.80;;
5955;SDS011;3004;48.080;11.600;2023-04-26T20:01:18;65.97;;;1.57;;
5955;SDS011;3004;48.080;11.600;2023-04-26T20:03:49;66.00;;;1.60;;
5955;SDS011;3004;48.080;11.600;2023-04-26T20:06:16;66.37;;;1.70;;
5955;SDS011;3004;48.080;11.600;2023-04-26T20:08:43;66.23;;;1.80;;
5955;SDS011;3004;48.080;11.600;2023-04-26T20:11:12;66.80;;;2.13;;
5955;SDS011;3004;48.080;11.600;2023-04-26T20:13:43;66.27;;;1.70;;
5955;SDS011;3004;48.080;11.600;2023-04-26T20:16:16;66.00;;;1.73;;
5955;SDS011;3004;48.080;11.600;2023-04-26T20:18:52;66.20;;;1.87;;
5955;SDS011;3004;48.080;11.600;2023-04-26T20:21:19;66.17;;;1.80;;
5955;SDS011;3004;48.080;11.600;2023-04-26T20:23:47;66.20;;;1.93;;
5955;SDS011;3004;48.080;11.600;2023-04-26T20:26:14;66.00;;;1.93;;
5955;SDS011;3004;48.080;11.600;2023-04-26T20:28:43;66.27;;;2.30;;
5955;SDS011;3004;48.080;11.600;2023-04-26T20:31:13;66.00;;;2.20;;
5955;SDS011;3004;48.080;11.600;2023-04-26T20:33:40;66.33;;;2.40;;
5955;SDS011;3004;48.080;11.600;2023-04-26T20:38:58;65.97;;;2.40;;
5955;SDS011;3004;48.080;11.600;2023-04-26T20:41:25;66.17;;;2.40;;
5955;SDS011;3004;48.080;11.600;2023-04-26T20:43:53;66.10;;;2.40;;
5955;SDS011;3004;48.080;11.600;2023-04-26T20:46:20;66.10;;;2.50;;
5955;SDS011;3004;48.080;11.600;2023-04-26T20:48:50;66.07;;;2.30;;
5955;SDS011;3004;48.080;11.600;2023-04-26T20:51:18;66.10;;;2.47;;
5955;SDS011;3004;48.080;11.600;2023-04-26T20:54:23;66.47;;;2.50;;
5955;SDS011;3004;48.080;11.600;2023-04-26T20:56:52;66.23;;;2.50;;
5955;SDS011;3004;48.080;11.600;2023-04-26T20:59:19;66.43;;;2.43;;
5955;SDS011;3004;48.080;11.600;2023-04-26T21:01:49;66.20;;;2.40;;
5955;SDS011;3004;48.080;11.600;2023-04-26T21:04:18;66.97;;;3.27;;
5955;SDS011;3004;48.080;11.600;2023-04-26T21:06:48;66.43;;;2.50;;
5955;SDS011;3004;48.080;11.600;2023-04-26T21:09:16;66.23;;;2.43;;
5955;SDS011;3004;48.080;11.600;2023-04-26T21:11:43;66.17;;;2.50;;
5955;SDS011;3004;48.080;11.600;2023-04-26T21:14:13;66.20;;;2.60;;
5955;SDS011;3004;48.080;11.600;2023-04-26T21:16:40;67.40;;;4.60;;
5955;SDS011;3004;48.080;11.600;2023-04-26T21:19:08;66.27;;;2.53;;
5955;SDS011;3004;48.080;11.600;2023-04-26T21:21:37;66.87;;;3.73;;
5955;SDS011;3004;48.080;11.600;2023-04-26T21:24:04;66.10;;;2.60;;
5955;SDS011;3004;48.080;11.600;2023-04-26T21:26:36;65.40;;;2.50;;
5955;SDS011;3004;48.080;11.600;2023-04-26T21:29:05;66.77;;;2.73;;
5955;SDS011;3004;48.080;11.600;2023-04-26T21:31:35;66.53;;;2.60;;
5955;SDS011;3004;48.080;11.600;2023-04-26T21:34:07;66.57;;;2.57;;
5955;SDS011;3004;48.080;11.600;2023-04-26T21:36:35;66.73;;;2.60;;
5955;SDS011;3004;48.080;11.600;2023-04-26T21:39:10;66.87;;;2.73;;
5955;SDS011;3004;48.080;11.600;2023-04-26T21:41:44;66.57;;;2.60;;
5955;SDS011;3004;48.080;11.600;2023-04-26T21:50:41;66.40;;;2.57;;
5955;SDS011;3004;48.080;11.600;2023-04-26T21:53:10;66.40;;;2.60;;
5955;SDS011;3004;48.080;11.600;2023-04-26T21:55:38;66.77;;;2.80;;
5955;SDS011;3004;48.080;11.600;2023-04-26T21:58:05;66.40;;;2.70;;
5955;SDS011;3004;48.080;11.600;2023-04-26T22:03:17;66.67;;;2.73;;
5955;SDS011;3004;48.080;11.600;2023-04-26T22:05:47;66.63;;;2.70;;
5955;SDS011;3004;48.080;11.600;2023-04-26T22:08:14;66.70;;;2.70;;
5955;SDS011;3004;48.080;11.600;2023-04-26T22:10:41;66.67;;;2.80;;
5955;SDS011;3004;48.080;11.600;2023-04-26T22:13:09;66.67;;;2.87;;
5955;SDS011;3004;48.080;11.600;2023-04-26T22:15:36;66.77;;;2.70;;
5955;SDS011;3004;48.080;11.600;2023-04-26T22:18:05;66.60;;;2.80;;
5955;SDS011;3004;48.080;11.600;2023-04-26T22:20:32;66.77;;;2.70;;
5955;SDS011;3004;48.080;11.600;2023-04-26T22:23:01;67.07;;;2.70;;
5955;SDS011;3004;48.080;11.600;2023-04-26T22:25:28;66.97;;;3.10;;
5955;SDS011;3004;48.080;11.600;2023-04-26T22:27:55;67.00;;;2.77;;